Cedar Valley, Iowa
Current Conditions -  °F | °C
As of 12:52 AM on Thursday 23 Oct 2014 (Local Time) from KIOW Reporting Station
Clear Clear  
Wind Chill: 39°   Ceiling: Unl
Heat Index: 43°   Visibility: 10mi
Dew Point: 39°   Wind: 6mph
Humidity: 86%   Direction: 130°SE
Pressure: 30.18"   Gusts: NA
Location:  41.6714°N, 91.2723°W
Report Text: KIOW 230552Z AUTO 13005KT 10SM CLR 06/04 A3018 RMK AO2 SLP221 T00610039 10111 20061 401560017 58009
Loading
Personal Weather Stations






























Interactive Weather Map
Tropical Storm Tracking
New forecast layout! Learn more

10-Day Weather Forecast

Advertisements
Track Severe Weather on mobile